Time;durP1;ratioP1;P1;durP2;ratioP2;P2;SDS_P1;SDS_P2;PMS_P1;PMS_P2;Temp;Humidity;BMP_temperature;BMP_pressure;BME280_temperature;BME280_humidity;BME280_pressure;Samples;Min_cycle;Max_cycle;Signal;HPM_P1;HPM_P2
2022/01/07 00:01:18;;;;;;;22.13;7.70;;;4.00;99.90;;;;;;5026830;28;20505;-51
2022/01/07 00:03:44;;;;;;;18.55;6.20;;;4.00;99.90;;;;;;5024430;28;20069;-51
2022/01/07 00:06:09;;;;;;;13.10;6.05;;;4.10;99.90;;;;;;5027842;28;20405;-53
2022/01/07 00:08:35;;;;;;;16.48;6.93;;;4.10;99.90;;;;;;5029751;28;20033;-49
2022/01/07 00:11:00;;;;;;;14.10;6.60;;;4.10;99.90;;;;;;5024493;28;20040;-49
2022/01/07 00:13:26;;;;;;;20.42;6.38;;;4.00;99.90;;;;;;5024324;28;20030;-49
2022/01/07 00:15:54;;;;;;;14.65;6.15;;;4.00;99.90;;;;;;5031202;28;20037;-50
2022/01/07 00:18:20;;;;;;;19.48;5.93;;;4.00;99.90;;;;;;5028209;28;20050;-52
2022/01/07 00:20:46;;;;;;;27.17;9.80;;;4.00;99.90;;;;;;4997859;28;20037;-56
2022/01/07 00:23:11;;;;;;;14.77;5.70;;;4.00;99.90;;;;;;5038142;28;20036;-55
2022/01/07 00:25:37;;;;;;;17.13;6.40;;;4.00;99.90;;;;;;5036003;28;20052;-52
2022/01/07 00:28:04;;;;;;;16.15;5.55;;;4.10;99.90;;;;;;5022590;28;20147;-52
2022/01/07 00:30:29;;;;;;;21.33;6.80;;;3.90;99.90;;;;;;5027457;28;20045;-50
2022/01/07 00:32:55;;;;;;;17.02;5.80;;;4.00;99.90;;;;;;5030650;28;20036;-51
2022/01/07 00:35:21;;;;;;;13.80;6.00;;;4.00;99.90;;;;;;5031090;28;20084;-53
2022/01/07 00:37:48;;;;;;;12.50;5.28;;;3.90;99.90;;;;;;5038099;28;20393;-50
2022/01/07 00:40:17;;;;;;;14.75;5.03;;;3.80;99.90;;;;;;5052867;28;20093;-51
2022/01/07 00:42:43;;;;;;;17.85;5.65;;;3.90;99.90;;;;;;5032316;28;20049;-54
2022/01/07 00:45:09;;;;;;;18.02;6.38;;;3.90;99.90;;;;;;5034499;28;20049;-54
2022/01/07 00:47:35;;;;;;;16.02;5.95;;;3.80;99.90;;;;;;5016700;28;20064;-51
2022/01/07 00:50:01;;;;;;;18.98;5.85;;;3.80;99.90;;;;;;5034145;28;20037;-56
2022/01/07 00:52:27;;;;;;;17.73;5.90;;;3.70;99.90;;;;;;5028179;28;20030;-55
2022/01/07 00:54:53;;;;;;;17.60;5.72;;;3.70;99.90;;;;;;4983641;28;20163;-57
2022/01/07 00:57:18;;;;;;;14.77;5.53;;;3.60;99.90;;;;;;5034126;28;20025;-53
2022/01/07 00:59:47;;;;;;;19.52;6.03;;;3.70;99.90;;;;;;5033884;28;20040;-52
2022/01/07 01:02:14;;;;;;;19.48;5.47;;;3.60;99.90;;;;;;5033976;28;20033;-53
2022/01/07 01:04:40;;;;;;;18.48;5.57;;;3.60;99.90;;;;;;5033958;28;20052;-52
2022/01/07 01:07:05;;;;;;;15.15;6.25;;;3.60;99.90;;;;;;5033157;28;20112;-52
2022/01/07 01:09:31;;;;;;;13.95;5.72;;;3.60;99.90;;;;;;5033278;28;20059;-56
2022/01/07 01:11:57;;;;;;;22.17;5.68;;;3.50;99.90;;;;;;5033224;28;20476;-52
2022/01/07 01:14:24;;;;;;;19.70;6.28;;;3.50;99.90;;;;;;4999695;28;20033;-55
2022/01/07 01:16:51;;;;;;;16.23;5.43;;;3.50;99.90;;;;;;5045671;28;20064;-54
2022/01/07 01:19:17;;;;;;;14.90;6.13;;;3.50;99.90;;;;;;5025870;28;20077;-50
2022/01/07 01:21:43;;;;;;;14.48;5.75;;;3.40;99.90;;;;;;5039347;28;20072;-56
2022/01/07 01:24:09;;;;;;;15.50;5.90;;;3.40;99.90;;;;;;5038159;28;20061;-53
2022/01/07 01:26:34;;;;;;;18.55;6.75;;;3.40;99.90;;;;;;5044179;28;20489;-51
2022/01/07 01:29:00;;;;;;;18.60;7.07;;;3.30;99.90;;;;;;5043292;28;20041;-54
2022/01/07 01:31:25;;;;;;;16.02;6.53;;;3.30;99.90;;;;;;5024952;28;20390;-56
2022/01/07 01:33:51;;;;;;;16.42;6.43;;;3.30;99.90;;;;;;5053116;28;20524;-52
2022/01/07 01:36:17;;;;;;;17.40;6.03;;;3.30;99.90;;;;;;5034575;28;20056;-49
2022/01/07 01:38:42;;;;;;;20.23;7.10;;;3.30;99.90;;;;;;5032692;28;20547;-52
2022/01/07 01:41:09;;;;;;;18.00;6.45;;;3.30;99.90;;;;;;5033514;28;20037;-54
2022/01/07 01:43:35;;;;;;;20.63;6.82;;;3.30;99.90;;;;;;5033149;28;20033;-52
2022/01/07 01:46:00;;;;;;;16.48;6.88;;;3.30;99.90;;;;;;5033507;28;20409;-51
2022/01/07 01:48:26;;;;;;;15.10;7.32;;;3.30;99.90;;;;;;4965140;28;20051;-57
2022/01/07 01:50:55;;;;;;;17.75;6.78;;;3.20;99.90;;;;;;5033348;28;20057;-49
2022/01/07 01:53:21;;;;;;;15.90;7.35;;;3.20;99.90;;;;;;5032344;28;20091;-51
2022/01/07 01:55:46;;;;;;;21.85;7.35;;;3.30;99.90;;;;;;5015620;28;20033;-51
2022/01/07 01:58:12;;;;;;;17.40;7.95;;;3.20;99.90;;;;;;5041388;28;20033;-50
2022/01/07 02:00:38;;;;;;;18.20;7.57;;;3.20;99.90;;;;;;5033741;28;20045;-52
2022/01/07 02:03:05;;;;;;;17.95;7.88;;;3.20;99.90;;;;;;5032764;28;20041;-49
2022/01/07 02:05:31;;;;;;;16.95;8.07;;;3.30;99.90;;;;;;5032150;28;20386;-52
2022/01/07 02:07:57;;;;;;;22.48;8.18;;;3.30;99.90;;;;;;5019298;28;20394;-53
2022/01/07 02:10:23;;;;;;;15.68;7.57;;;3.30;99.90;;;;;;5013024;28;20046;-53
2022/01/07 02:12:49;;;;;;;20.00;8.15;;;3.20;99.90;;;;;;4979253;28;20105;-54
2022/01/07 02:15:16;;;;;;;16.63;8.45;;;3.30;99.90;;;;;;4995610;28;20528;-50
2022/01/07 02:17:44;;;;;;;18.90;8.30;;;3.20;99.90;;;;;;4995221;28;20193;-50
2022/01/07 02:20:13;;;;;;;17.73;8.70;;;3.10;99.90;;;;;;5012781;28;20069;-52
2022/01/07 02:22:39;;;;;;;20.58;9.30;;;3.10;99.90;;;;;;5026260;28;20049;-51
2022/01/07 02:25:05;;;;;;;16.10;9.05;;;3.20;99.90;;;;;;5032417;28;20106;-50
2022/01/07 02:27:34;;;;;;;22.98;9.40;;;3.20;99.90;;;;;;5028221;28;20037;-50
2022/01/07 02:30:00;;;;;;;14.20;7.00;;;3.10;99.90;;;;;;5024313;28;20095;-51
2022/01/07 02:32:25;;;;;;;21.08;9.75;;;3.20;99.90;;;;;;5043622;28;20544;-55
2022/01/07 02:34:51;;;;;;;20.98;9.25;;;3.20;99.90;;;;;;5048673;28;20038;-49
2022/01/07 02:37:17;;;;;;;20.95;9.18;;;3.20;99.90;;;;;;5013849;28;20049;-51
2022/01/07 02:39:45;;;;;;;20.17;9.40;;;3.10;99.90;;;;;;5031894;28;20497;-53
2022/01/07 02:42:11;;;;;;;19.02;8.95;;;3.10;99.90;;;;;;5031646;28;20037;-53
2022/01/07 02:44:36;;;;;;;16.75;8.93;;;3.10;99.90;;;;;;5035609;28;20504;-53
2022/01/07 02:47:02;;;;;;;18.67;9.52;;;3.10;99.90;;;;;;5042575;28;20122;-52
2022/01/07 02:49:28;;;;;;;21.70;8.27;;;3.10;99.90;;;;;;5036782;28;20389;-52
2022/01/07 02:51:53;;;;;;;18.13;9.43;;;3.10;99.90;;;;;;5031650;28;20038;-49
2022/01/07 02:54:19;;;;;;;18.95;10.57;;;3.10;99.90;;;;;;5032161;28;20053;-53
2022/01/07 02:56:45;;;;;;;17.38;9.45;;;3.00;99.90;;;;;;5014330;28;20103;-52
2022/01/07 02:59:11;;;;;;;19.10;9.45;;;3.00;99.90;;;;;;5031914;28;20116;-52
2022/01/07 03:01:38;;;;;;;19.95;9.73;;;3.00;99.90;;;;;;5021262;28;20026;-54
2022/01/07 03:04:05;;;;;;;17.15;9.38;;;3.10;99.90;;;;;;5011965;28;20077;-49
2022/01/07 03:06:31;;;;;;;21.23;9.98;;;3.10;99.90;;;;;;5011976;28;20033;-52
2022/01/07 03:08:56;;;;;;;21.77;9.68;;;3.00;99.90;;;;;;5031429;28;20044;-54
2022/01/07 03:11:23;;;;;;;19.65;9.27;;;3.00;99.90;;;;;;5014124;28;20421;-53
2022/01/07 03:13:49;;;;;;;17.45;8.68;;;3.10;99.90;;;;;;4997468;28;20069;-52
2022/01/07 03:16:15;;;;;;;17.02;8.30;;;3.10;99.90;;;;;;4983366;28;20046;-51
2022/01/07 03:18:41;;;;;;;17.02;9.23;;;3.20;99.90;;;;;;4994516;28;20042;-52
2022/01/07 03:21:07;;;;;;;18.33;9.13;;;3.10;99.90;;;;;;5002610;28;20033;-53
2022/01/07 03:23:33;;;;;;;21.05;9.38;;;3.10;99.90;;;;;;5030380;28;20037;-52
2022/01/07 03:25:59;;;;;;;17.90;9.02;;;3.10;99.90;;;;;;5031732;28;20517;-55
2022/01/07 03:28:24;;;;;;;16.13;9.10;;;3.10;99.90;;;;;;5031537;28;20049;-49
2022/01/07 03:30:50;;;;;;;22.58;9.65;;;3.10;99.90;;;;;;5030292;28;20059;-50
2022/01/07 03:33:16;;;;;;;19.98;8.63;;;3.10;99.90;;;;;;5031093;28;20036;-52
2022/01/07 03:35:42;;;;;;;16.17;9.07;;;3.10;99.90;;;;;;5031772;28;20068;-50
2022/01/07 03:38:09;;;;;;;21.83;9.90;;;3.10;99.90;;;;;;5031511;28;20038;-53
2022/01/07 03:40:35;;;;;;;22.85;9.55;;;3.20;99.90;;;;;;5031320;28;20512;-50
2022/01/07 03:43:02;;;;;;;19.63;10.02;;;3.10;99.90;;;;;;5031152;28;20053;-50
2022/01/07 03:45:27;;;;;;;16.77;9.43;;;3.10;99.90;;;;;;5030159;28;20088;-52
2022/01/07 03:47:53;;;;;;;17.67;9.13;;;3.20;99.90;;;;;;5031387;28;20042;-52
2022/01/07 03:50:21;;;;;;;17.88;9.52;;;3.20;99.90;;;;;;5031198;28;20132;-49
2022/01/07 03:52:48;;;;;;;16.35;8.00;;;3.20;99.90;;;;;;5031258;28;20124;-51
2022/01/07 03:55:16;;;;;;;19.00;9.13;;;3.20;99.90;;;;;;5031336;28;20111;-52
2022/01/07 03:57:42;;;;;;;19.83;8.93;;;3.20;99.90;;;;;;5024481;28;20046;-52
2022/01/07 04:00:11;;;;;;;20.63;9.43;;;3.20;99.90;;;;;;5011451;28;20038;-54
2022/01/07 04:02:37;;;;;;;17.23;9.65;;;3.20;99.90;;;;;;5011256;28;20045;-49
2022/01/07 04:05:03;;;;;;;18.13;8.85;;;3.10;99.90;;;;;;5011563;28;20046;-50
2022/01/07 04:07:31;;;;;;;20.33;9.15;;;3.10;99.90;;;;;;5011787;28;20379;-51
2022/01/07 04:10:00;;;;;;;18.00;9.35;;;3.20;99.90;;;;;;5011372;28;20046;-51
2022/01/07 04:12:28;;;;;;;15.48;8.50;;;3.20;99.90;;;;;;5013835;28;20038;-51
2022/01/07 04:15:09;;;;;;;16.77;8.25;;;3.20;99.90;;;;;;5017555;28;20034;-53
2022/01/07 04:17:40;;;;;;;19.00;9.48;;;3.20;99.90;;;;;;5015321;28;20096;-50
2022/01/07 04:20:08;;;;;;;17.90;8.82;;;3.20;99.90;;;;;;5015144;28;20030;-50
2022/01/07 04:22:35;;;;;;;18.75;8.45;;;3.20;99.90;;;;;;5014864;28;20065;-55
2022/01/07 04:25:02;;;;;;;13.73;8.23;;;3.30;99.90;;;;;;5031094;28;20046;-55
2022/01/07 04:27:28;;;;;;;17.13;7.93;;;3.30;99.90;;;;;;5025709;28;20040;-51
2022/01/07 04:29:53;;;;;;;16.73;8.35;;;3.30;99.90;;;;;;5014918;28;20045;-49
2022/01/07 04:32:19;;;;;;;16.15;8.90;;;3.20;99.90;;;;;;4997045;28;20054;-54
2022/01/07 04:34:45;;;;;;;17.27;8.70;;;3.20;99.90;;;;;;5015150;28;20049;-50
2022/01/07 04:37:10;;;;;;;14.07;8.52;;;3.30;99.90;;;;;;4981133;28;20041;-50
2022/01/07 04:39:36;;;;;;;18.13;9.02;;;3.30;99.90;;;;;;5027173;28;20049;-50
2022/01/07 04:42:02;;;;;;;13.93;8.15;;;3.20;99.90;;;;;;5018379;28;20054;-56
2022/01/07 04:44:28;;;;;;;15.15;8.13;;;3.20;99.90;;;;;;5026756;28;20048;-50
2022/01/07 04:46:53;;;;;;;15.60;8.13;;;3.20;99.90;;;;;;5043881;28;20037;-53
2022/01/07 04:49:19;;;;;;;17.90;8.32;;;3.20;99.90;;;;;;5037826;28;20073;-53
2022/01/07 04:51:44;;;;;;;16.52;7.70;;;3.20;99.90;;;;;;5034453;28;20033;-51
2022/01/07 04:54:10;;;;;;;13.30;7.68;;;3.10;99.90;;;;;;5034032;28;20041;-54
2022/01/07 04:56:36;;;;;;;12.82;7.00;;;3.10;99.90;;;;;;5031427;28;20045;-52
2022/01/07 04:59:01;;;;;;;11.70;7.72;;;3.10;99.90;;;;;;5034158;28;20041;-55
2022/01/07 05:01:27;;;;;;;14.38;8.15;;;3.10;99.90;;;;;;5043403;28;20037;-53
2022/01/07 05:03:52;;;;;;;13.85;8.48;;;3.00;99.90;;;;;;5032806;28;20052;-53
2022/01/07 05:09:02;;;;;;;15.30;8.05;;;3.00;99.90;;;;;;5033812;28;20584;-53
2022/01/07 05:11:28;;;;;;;13.43;8.25;;;3.10;99.90;;;;;;4999839;28;20076;-53
2022/01/07 05:13:54;;;;;;;12.50;7.80;;;3.00;99.90;;;;;;5032072;28;20482;-53
2022/01/07 05:16:20;;;;;;;14.55;7.30;;;3.10;99.90;;;;;;5042056;28;20045;-54
2022/01/07 05:18:45;;;;;;;16.38;7.93;;;3.10;99.90;;;;;;5010705;28;20041;-51
2022/01/07 05:21:11;;;;;;;11.45;7.15;;;3.10;99.90;;;;;;5026961;28;20037;-50
2022/01/07 05:23:36;;;;;;;13.35;7.63;;;3.20;99.90;;;;;;5032498;28;20132;-54
2022/01/07 05:26:04;;;;;;;13.40;7.90;;;3.10;99.90;;;;;;5033694;28;20132;-56
2022/01/07 05:28:46;;;;;;;13.18;7.45;;;3.20;99.90;;;;;;5014807;28;20048;-49
2022/01/07 05:31:11;;;;;;;17.95;8.00;;;2.30;99.90;;;;;;5033582;28;20512;-50
2022/01/07 05:33:37;;;;;;;15.25;7.25;;;3.10;99.90;;;;;;5033259;28;20033;-50
2022/01/07 05:36:03;;;;;;;14.40;7.05;;;3.10;99.90;;;;;;5033526;28;20046;-54
2022/01/07 05:38:28;;;;;;;17.25;8.18;;;3.20;99.90;;;;;;5021370;28;20570;-53
2022/01/07 05:40:54;;;;;;;12.90;5.70;;;3.20;99.90;;;;;;5013569;28;20124;-50
2022/01/07 05:43:19;;;;;;;11.13;7.38;;;3.20;99.90;;;;;;5014456;28;20053;-51
2022/01/07 05:45:46;;;;;;;13.18;7.35;;;3.20;99.90;;;;;;5013584;28;20116;-50
2022/01/07 05:48:12;;;;;;;14.95;6.90;;;3.20;99.90;;;;;;5017446;28;20535;-51
2022/01/07 05:50:38;;;;;;;10.60;7.10;;;3.20;99.90;;;;;;5033503;28;20045;-50
2022/01/07 05:53:04;;;;;;;9.27;6.50;;;3.30;99.90;;;;;;5040506;28;20029;-51
2022/01/07 05:55:29;;;;;;;13.02;6.80;;;3.30;99.90;;;;;;5045633;28;20052;-51
2022/01/07 05:57:55;;;;;;;11.13;7.03;;;3.30;99.90;;;;;;5033580;28;20044;-54
2022/01/07 06:00:21;;;;;;;13.15;6.93;;;3.30;99.90;;;;;;5033067;28;20037;-54
2022/01/07 06:02:47;;;;;;;11.10;6.70;;;3.30;99.90;;;;;;5040501;28;20105;-50
2022/01/07 06:05:12;;;;;;;9.57;6.80;;;3.30;99.90;;;;;;5032891;28;20383;-50
2022/01/07 06:07:38;;;;;;;14.43;6.65;;;3.30;99.90;;;;;;5032565;28;20033;-51
2022/01/07 06:10:05;;;;;;;10.70;6.55;;;3.30;99.90;;;;;;5030508;28;20474;-52
2022/01/07 06:12:30;;;;;;;11.00;6.30;;;3.30;99.90;;;;;;5012819;28;20053;-49
2022/01/07 06:14:57;;;;;;;10.02;7.00;;;3.30;99.90;;;;;;5013075;28;20045;-52
2022/01/07 06:17:23;;;;;;;13.65;7.40;;;3.30;99.90;;;;;;5026349;28;20041;-48
2022/01/07 06:19:48;;;;;;;12.23;6.85;;;3.30;99.90;;;;;;5032492;28;20508;-53
2022/01/07 06:22:14;;;;;;;12.10;6.97;;;3.30;99.90;;;;;;5032136;28;20045;-55
2022/01/07 06:24:39;;;;;;;10.18;6.78;;;3.40;99.90;;;;;;5031307;28;20045;-56
2022/01/07 06:27:05;;;;;;;9.50;6.55;;;3.40;99.90;;;;;;5012789;28;20042;-52
2022/01/07 06:29:31;;;;;;;10.88;6.47;;;3.40;99.90;;;;;;5012600;28;20045;-52
2022/01/07 06:31:56;;;;;;;10.82;6.65;;;3.30;99.90;;;;;;5012459;28;20050;-55
2022/01/07 06:34:23;;;;;;;11.18;6.70;;;3.30;99.90;;;;;;5013273;28;20064;-56
2022/01/07 06:36:48;;;;;;;9.55;6.63;;;3.40;99.90;;;;;;5011501;28;20494;-54
2022/01/07 06:39:19;;;;;;;10.73;6.97;;;3.40;99.90;;;;;;5016732;28;20046;-56
2022/01/07 06:41:48;;;;;;;12.60;7.15;;;3.40;99.90;;;;;;5019481;28;20044;-54
2022/01/07 06:44:15;;;;;;;12.27;6.78;;;3.40;99.90;;;;;;5012410;28;20038;-53
2022/01/07 06:46:40;;;;;;;12.20;7.57;;;3.40;99.90;;;;;;4995854;28;20041;-57
2022/01/07 06:49:06;;;;;;;12.50;7.75;;;3.40;99.90;;;;;;5012227;28;20094;-53
2022/01/07 06:51:32;;;;;;;11.63;7.50;;;3.30;99.90;;;;;;5012470;28;20100;-53
2022/01/07 06:54:01;;;;;;;14.32;8.32;;;3.40;99.90;;;;;;5016057;28;20033;-55
2022/01/07 06:56:28;;;;;;;13.07;8.00;;;3.40;99.90;;;;;;5012647;28;20038;-54
2022/01/07 06:58:54;;;;;;;12.50;8.27;;;3.40;99.90;;;;;;5012314;28;20464;-52
2022/01/07 07:01:20;;;;;;;15.60;8.85;;;3.40;99.90;;;;;;5026118;28;20125;-55
2022/01/07 07:03:45;;;;;;;11.18;8.32;;;3.40;99.90;;;;;;5031604;28;20037;-53
2022/01/07 07:06:12;;;;;;;13.45;9.10;;;3.40;99.90;;;;;;5031980;28;20047;-54
2022/01/07 07:08:38;;;;;;;16.38;9.43;;;3.40;99.90;;;;;;5025747;28;20534;-53
2022/01/07 07:11:04;;;;;;;15.05;8.63;;;3.40;99.90;;;;;;5020250;28;20121;-55
2022/01/07 07:13:30;;;;;;;14.93;9.48;;;3.40;99.90;;;;;;5012894;28;20033;-53
2022/01/07 07:15:56;;;;;;;16.45;10.15;;;3.40;99.90;;;;;;5029354;28;20033;-53
2022/01/07 07:18:21;;;;;;;17.42;10.10;;;3.50;99.90;;;;;;5042948;28;20067;-54
2022/01/07 07:20:47;;;;;;;19.70;10.80;;;3.40;99.90;;;;;;5051704;28;20125;-53
2022/01/07 07:23:12;;;;;;;16.05;10.63;;;3.50;99.90;;;;;;5051573;28;20318;-53
2022/01/07 07:25:38;;;;;;;16.73;10.27;;;3.50;99.90;;;;;;5022453;28;20449;-52
2022/01/07 07:28:04;;;;;;;17.67;10.43;;;3.50;99.90;;;;;;5011847;28;20095;-55
2022/01/07 07:30:36;;;;;;;19.77;11.20;;;3.60;99.90;;;;;;5011595;28;20132;-56
2022/01/07 07:33:28;;;;;;;19.83;11.13;;;3.60;99.90;;;;;;5011475;28;20041;-56
2022/01/07 07:38:41;;;;;;;20.27;11.80;;;3.70;99.90;;;;;;5016731;28;20527;-54
2022/01/07 07:41:07;;;;;;;19.23;11.77;;;3.70;99.90;;;;;;5031260;28;20048;-53
2022/01/07 07:43:34;;;;;;;19.52;11.90;;;3.70;99.90;;;;;;5007137;28;20088;-52
2022/01/07 07:46:00;;;;;;;19.40;12.63;;;3.80;99.90;;;;;;5028670;28;20120;-53
2022/01/07 07:48:25;;;;;;;20.60;13.07;;;3.80;99.90;;;;;;5033516;28;20117;-53
2022/01/07 07:50:51;;;;;;;20.73;13.13;;;3.80;99.90;;;;;;5016347;28;20038;-55
2022/01/07 07:53:18;;;;;;;21.58;13.60;;;3.80;99.90;;;;;;5030762;28;20033;-57
2022/01/07 07:55:48;;;;;;;22.15;13.45;;;3.80;99.90;;;;;;5033986;28;20041;-56
2022/01/07 07:58:13;;;;;;;23.70;13.27;;;3.80;99.90;;;;;;5017526;28;20819;-56
2022/01/07 08:00:40;;;;;;;25.15;14.27;;;3.90;99.90;;;;;;5037285;28;20075;-56
2022/01/07 08:03:05;;;;;;;22.05;13.98;;;3.90;99.90;;;;;;5050574;28;20484;-55
2022/01/07 08:05:31;;;;;;;23.13;14.35;;;3.90;99.90;;;;;;5027766;28;20161;-56
2022/01/07 08:07:58;;;;;;;22.33;14.32;;;4.00;99.90;;;;;;5031391;28;20042;-57
2022/01/07 08:10:25;;;;;;;28.55;15.32;;;4.00;99.90;;;;;;5034694;28;20494;-55
2022/01/07 08:13:25;;;;;;;22.85;15.57;;;4.00;99.90;;;;;;5034761;28;20045;-57
2022/01/07 08:15:58;;;;;;;30.23;16.15;;;4.10;99.90;;;;;;5034634;28;20522;-54
2022/01/07 08:18:37;;;;;;;28.00;16.02;;;4.10;99.90;;;;;;5034258;28;20048;-52
2022/01/07 08:21:06;;;;;;;28.45;16.30;;;4.20;99.90;;;;;;5034488;28;20079;-53
2022/01/07 08:23:33;;;;;;;30.70;16.52;;;4.10;99.90;;;;;;5034224;28;20041;-52
2022/01/07 08:25:58;;;;;;;29.98;16.65;;;4.20;99.90;;;;;;5034069;28;20144;-51
2022/01/07 08:28:27;;;;;;;33.63;18.25;;;4.20;99.90;;;;;;5033180;28;20127;-56
2022/01/07 08:36:23;;;;;;;28.33;17.05;;;4.20;99.90;;;;;;5032640;28;20103;-57
2022/01/07 08:38:50;;;;;;;32.83;18.25;;;4.20;99.90;;;;;;5030931;28;20037;-54
2022/01/07 08:41:16;;;;;;;30.88;17.52;;;4.20;99.90;;;;;;5032657;28;20033;-55
2022/01/07 08:43:43;;;;;;;27.77;16.85;;;4.30;99.90;;;;;;5033111;28;20102;-58
2022/01/07 08:46:09;;;;;;;29.83;17.70;;;4.20;99.90;;;;;;5035960;28;20088;-54
2022/01/07 08:48:36;;;;;;;29.52;17.38;;;4.30;99.90;;;;;;5036071;28;20046;-57
2022/01/07 08:51:03;;;;;;;35.97;18.23;;;4.30;99.90;;;;;;5032357;28;20037;-54
2022/01/07 08:53:29;;;;;;;33.28;18.20;;;4.30;99.90;;;;;;5027624;28;20042;-51
2022/01/07 08:55:55;;;;;;;30.45;17.70;;;4.30;99.90;;;;;;5026070;28;20098;-54
2022/01/07 08:58:21;;;;;;;36.10;18.83;;;4.40;99.90;;;;;;5025610;28;20029;-56
2022/01/07 09:00:46;;;;;;;32.75;17.70;;;4.40;99.90;;;;;;5026770;28;20041;-55
2022/01/07 09:03:13;;;;;;;30.33;19.05;;;4.40;99.90;;;;;;5028500;28;20044;-58
2022/01/07 09:05:39;;;;;;;36.47;19.08;;;4.50;99.90;;;;;;5028776;28;20057;-60
2022/01/07 09:08:07;;;;;;;34.38;18.95;;;4.50;99.90;;;;;;5032550;28;20046;-57
2022/01/07 09:10:33;;;;;;;29.70;17.90;;;4.60;99.90;;;;;;5032462;28;20171;-54
2022/01/07 09:12:58;;;;;;;33.83;18.88;;;4.70;99.90;;;;;;5032599;28;20033;-56
2022/01/07 09:15:24;;;;;;;33.08;19.08;;;4.70;99.90;;;;;;5030867;28;20394;-51
2022/01/07 09:17:50;;;;;;;36.85;20.27;;;4.70;99.90;;;;;;5033135;28;20035;-54
2022/01/07 09:20:15;;;;;;;27.10;18.48;;;4.70;99.90;;;;;;5013265;28;20069;-54
2022/01/07 09:22:41;;;;;;;33.00;18.40;;;4.70;99.90;;;;;;5031921;28;20123;-52
2022/01/07 09:25:07;;;;;;;35.95;19.80;;;4.80;99.90;;;;;;5033597;28;20099;-54
2022/01/07 09:27:33;;;;;;;36.47;20.55;;;4.80;99.90;;;;;;5015586;28;20137;-57
2022/01/07 09:29:59;;;;;;;37.05;19.52;;;4.80;99.90;;;;;;4991577;28;20121;-56
2022/01/07 09:32:25;;;;;;;30.42;18.27;;;4.80;99.90;;;;;;5032905;28;20049;-54
2022/01/07 09:34:50;;;;;;;25.67;17.50;;;4.90;99.90;;;;;;5018899;28;20040;-55
2022/01/07 09:37:17;;;;;;;33.30;19.90;;;4.90;99.90;;;;;;5009181;28;20581;-54
2022/01/07 09:39:42;;;;;;;36.72;19.05;;;4.90;99.90;;;;;;5025699;28;20043;-54
2022/01/07 09:42:08;;;;;;;31.85;18.92;;;4.90;99.90;;;;;;5032190;28;20041;-56
2022/01/07 09:44:39;;;;;;;30.75;17.80;;;4.90;99.90;;;;;;5047130;28;20051;-54
2022/01/07 09:47:06;;;;;;;30.08;18.42;;;4.90;99.90;;;;;;5036158;28;20087;-54
2022/01/07 09:49:34;;;;;;;37.58;20.50;;;4.90;99.90;;;;;;5040955;28;20048;-57
2022/01/07 09:52:00;;;;;;;35.35;20.10;;;4.90;99.90;;;;;;5032802;28;20440;-57
2022/01/07 09:54:26;;;;;;;34.33;19.48;;;4.90;99.90;;;;;;5032872;28;20095;-56
2022/01/07 09:56:51;;;;;;;28.10;16.80;;;5.00;99.90;;;;;;5034237;28;20376;-58
2022/01/07 09:59:18;;;;;;;29.73;17.40;;;5.00;99.90;;;;;;5044147;28;20041;-55
2022/01/07 10:01:54;;;;;;;29.50;16.73;;;5.10;99.90;;;;;;5043559;28;20155;-59
2022/01/07 10:04:32;;;;;;;26.52;16.60;;;5.00;99.90;;;;;;5041319;28;20041;-55
2022/01/07 10:07:13;;;;;;;30.48;17.08;;;5.10;99.90;;;;;;5038666;28;20045;-57
2022/01/07 10:09:39;;;;;;;28.85;17.23;;;5.00;99.90;;;;;;5047875;28;20500;-56
2022/01/07 10:12:07;;;;;;;31.73;17.65;;;5.10;99.90;;;;;;5047006;28;20046;-57
2022/01/07 10:14:36;;;;;;;26.52;15.98;;;5.10;99.90;;;;;;5051530;28;20060;-55
2022/01/07 10:17:06;;;;;;;28.42;15.32;;;5.20;99.90;;;;;;5039259;28;20037;-54
2022/01/07 10:19:41;;;;;;;24.08;12.90;;;5.20;99.90;;;;;;5046988;28;20536;-54
2022/01/07 10:22:12;;;;;;;23.80;13.60;;;5.20;99.90;;;;;;5047135;28;20404;-54
2022/01/07 10:24:59;;;;;;;25.17;13.73;;;5.10;99.90;;;;;;5033027;28;20083;-55
2022/01/07 10:27:27;;;;;;;19.15;11.48;;;5.10;99.90;;;;;;5032491;28;20057;-57
2022/01/07 10:29:53;;;;;;;22.27;12.43;;;5.00;99.90;;;;;;5032214;28;20501;-57
2022/01/07 10:32:19;;;;;;;20.17;10.80;;;5.00;99.90;;;;;;5031864;28;20084;-56
2022/01/07 10:35:09;;;;;;;19.23;11.10;;;5.00;99.90;;;;;;5032407;28;20493;-58
2022/01/07 10:37:44;;;;;;;21.65;11.00;;;5.10;99.90;;;;;;5032396;28;20509;-54
2022/01/07 10:40:24;;;;;;;16.60;11.07;;;5.00;99.90;;;;;;5031927;28;20397;-52
2022/01/07 10:42:51;;;;;;;20.27;9.90;;;5.00;99.90;;;;;;5032215;28;20045;-51
2022/01/07 10:45:18;;;;;;;19.83;11.52;;;5.00;99.90;;;;;;5032213;28;20037;-55
2022/01/07 10:47:49;;;;;;;20.30;11.05;;;5.00;99.90;;;;;;5032069;28;20127;-56
2022/01/07 10:50:24;;;;;;;23.55;11.30;;;5.00;99.90;;;;;;5031903;28;20497;-55
2022/01/07 10:52:51;;;;;;;17.40;10.98;;;5.00;99.90;;;;;;5010375;28;20387;-57
2022/01/07 10:55:21;;;;;;;18.98;11.13;;;5.00;99.90;;;;;;5011971;28;20052;-54
2022/01/07 10:57:49;;;;;;;22.45;11.15;;;5.00;99.90;;;;;;5024235;28;20044;-53
2022/01/07 11:00:17;;;;;;;17.13;11.18;;;5.00;99.90;;;;;;5032237;28;20033;-51
2022/01/07 11:02:43;;;;;;;22.88;12.93;;;5.00;99.90;;;;;;5031649;28;20489;-55
2022/01/07 11:05:09;;;;;;;23.95;12.95;;;5.10;99.90;;;;;;5031788;28;20061;-52
2022/01/07 11:07:35;;;;;;;29.95;15.30;;;5.10;99.90;;;;;;5031229;28;20029;-53
2022/01/07 11:10:03;;;;;;;28.88;15.68;;;5.10;99.90;;;;;;5031905;28;20503;-54
2022/01/07 11:12:30;;;;;;;28.23;15.80;;;5.10;99.90;;;;;;5031543;28;20068;-51
2022/01/07 11:14:56;;;;;;;26.73;15.35;;;5.20;99.90;;;;;;5031406;28;20034;-53
2022/01/07 11:17:22;;;;;;;26.77;14.77;;;5.20;99.90;;;;;;5031532;28;20037;-56
2022/01/07 11:19:56;;;;;;;22.77;13.95;;;5.20;99.90;;;;;;5031886;28;20136;-56
2022/01/07 11:22:24;;;;;;;17.65;10.95;;;5.20;99.90;;;;;;5030974;28;20168;-55
2022/01/07 11:24:53;;;;;;;20.20;10.25;;;5.20;99.90;;;;;;5031703;28;20276;-51
2022/01/07 11:27:20;;;;;;;15.52;8.07;;;5.20;99.90;;;;;;5031464;28;20053;-52
2022/01/07 11:30:04;;;;;;;7.82;3.97;;;5.20;99.90;;;;;;5014590;28;20425;-56
2022/01/07 11:32:35;;;;;;;7.32;2.53;;;5.20;99.90;;;;;;5030793;28;20045;-58
2022/01/07 11:35:19;;;;;;;4.05;1.40;;;5.10;99.90;;;;;;5031283;28;20592;-58
2022/01/07 11:37:51;;;;;;;4.85;1.45;;;5.10;99.90;;;;;;5013696;28;20133;-59
2022/01/07 11:40:28;;;;;;;6.68;2.08;;;4.90;99.90;;;;;;5031296;28;20041;-58
2022/01/07 11:42:59;;;;;;;8.40;2.08;;;5.00;99.90;;;;;;5031146;28;20401;-58
2022/01/07 11:45:38;;;;;;;4.30;2.13;;;4.90;99.90;;;;;;5031666;28;20129;-58
2022/01/07 11:48:10;;;;;;;9.05;1.83;;;4.90;99.90;;;;;;5031364;28;20115;-58
2022/01/07 11:50:55;;;;;;;4.95;1.33;;;4.80;99.90;;;;;;5031287;28;20051;-59
2022/01/07 11:53:25;;;;;;;7.57;1.80;;;4.80;99.90;;;;;;5036255;28;20396;-56
2022/01/07 11:55:50;;;;;;;7.45;1.50;;;4.70;99.90;;;;;;5036574;28;20029;-58
2022/01/07 11:58:17;;;;;;;6.85;2.13;;;4.70;99.90;;;;;;5042805;28;20382;-58
2022/01/07 12:01:03;;;;;;;4.80;1.00;;;4.70;99.90;;;;;;5051278;28;20044;-59
2022/01/07 12:03:36;;;;;;;8.38;1.27;;;4.70;99.90;;;;;;5050831;28;20386;-57
2022/01/07 12:06:24;;;;;;;9.30;1.35;;;4.60;99.90;;;;;;5036265;28;20081;-54
2022/01/07 12:09:38;;;;;;;5.88;1.35;;;4.60;99.90;;;;;;5031041;28;20053;-58
2022/01/07 12:12:17;;;;;;;5.53;1.60;;;4.60;99.90;;;;;;5027893;28;20080;-58
2022/01/07 12:14:48;;;;;;;8.48;1.40;;;4.60;99.90;;;;;;5027960;28;20501;-58
2022/01/07 12:17:15;;;;;;;6.07;1.40;;;4.60;99.90;;;;;;5031428;28;20049;-58
2022/01/07 12:19:42;;;;;;;8.25;1.52;;;4.60;99.90;;;;;;5030952;28;20064;-59
2022/01/07 12:22:11;;;;;;;6.35;1.55;;;4.60;99.90;;;;;;5012261;28;20553;-55
2022/01/07 12:24:36;;;;;;;7.80;2.28;;;4.60;99.90;;;;;;5030918;28;20037;-58
2022/01/07 12:27:07;;;;;;;7.57;1.80;;;4.50;99.90;;;;;;5031090;28;20532;-58
2022/01/07 12:29:35;;;;;;;3.25;1.20;;;4.50;99.90;;;;;;5024447;28;20436;-59
2022/01/07 12:32:03;;;;;;;7.43;1.48;;;4.60;99.90;;;;;;5030857;28;20038;-59
2022/01/07 12:34:32;;;;;;;5.78;1.27;;;4.50;99.90;;;;;;5033948;28;20120;-59
2022/01/07 12:37:10;;;;;;;5.30;1.50;;;4.50;99.90;;;;;;5034513;28;20467;-58
2022/01/07 12:39:38;;;;;;;4.78;1.33;;;4.50;99.90;;;;;;5034342;28;20045;-59
2022/01/07 12:42:04;;;;;;;7.68;1.75;;;4.50;99.90;;;;;;5034318;28;20042;-59
2022/01/07 12:44:36;;;;;;;4.85;1.98;;;4.50;99.90;;;;;;5034455;28;20033;-58
2022/01/07 12:47:02;;;;;;;6.43;2.45;;;4.60;99.90;;;;;;5016689;28;20052;-59
2022/01/07 12:49:43;;;;;;;8.38;2.40;;;4.60;99.90;;;;;;5034262;28;20056;-59
2022/01/07 12:52:16;;;;;;;14.10;3.50;;;4.70;99.90;;;;;;5033796;28;20497;-58
2022/01/07 12:54:51;;;;;;;8.85;3.63;;;4.60;99.90;;;;;;5034218;28;20489;-59
2022/01/07 12:57:29;;;;;;;13.18;4.30;;;4.70;99.90;;;;;;5034052;28;20080;-59
2022/01/07 13:00:06;;;;;;;9.93;4.88;;;4.80;99.90;;;;;;5033891;28;20033;-58